sensor_id;sensor_type;location;lat;lon;timestamp;P1;durP1;ratioP1;P2;durP2;ratioP2
21237;SDS011;10777;50.828;3.264;2022-10-31T00:01:24;9.90;;;4.50;;
21237;SDS011;10777;50.828;3.264;2022-10-31T00:03:51;10.07;;;5.53;;
21237;SDS011;10777;50.828;3.264;2022-10-31T00:06:17;9.67;;;5.40;;
21237;SDS011;10777;50.828;3.264;2022-10-31T00:08:44;11.37;;;5.27;;
21237;SDS011;10777;50.828;3.264;2022-10-31T00:11:10;9.80;;;5.43;;
21237;SDS011;10777;50.828;3.264;2022-10-31T00:13:36;9.03;;;4.80;;
21237;SDS011;10777;50.828;3.264;2022-10-31T00:16:02;11.83;;;6.00;;
21237;SDS011;10777;50.828;3.264;2022-10-31T00:18:27;10.40;;;5.77;;
21237;SDS011;10777;50.828;3.264;2022-10-31T00:21:01;10.83;;;6.13;;
21237;SDS011;10777;50.828;3.264;2022-10-31T00:23:27;8.73;;;5.30;;
21237;SDS011;10777;50.828;3.264;2022-10-31T00:25:53;10.43;;;5.53;;
21237;SDS011;10777;50.828;3.264;2022-10-31T00:28:19;16.07;;;5.40;;
21237;SDS011;10777;50.828;3.264;2022-10-31T00:30:44;8.33;;;5.47;;
21237;SDS011;10777;50.828;3.264;2022-10-31T00:33:10;8.50;;;5.40;;
21237;SDS011;10777;50.828;3.264;2022-10-31T00:35:35;11.43;;;5.90;;
21237;SDS011;10777;50.828;3.264;2022-10-31T00:38:01;8.27;;;5.70;;
21237;SDS011;10777;50.828;3.264;2022-10-31T00:40:27;9.23;;;6.40;;
21237;SDS011;10777;50.828;3.264;2022-10-31T00:42:52;12.00;;;6.37;;
21237;SDS011;10777;50.828;3.264;2022-10-31T00:45:18;10.97;;;5.37;;
21237;SDS011;10777;50.828;3.264;2022-10-31T00:47:43;8.07;;;5.73;;
21237;SDS011;10777;50.828;3.264;2022-10-31T00:50:09;11.03;;;5.83;;
21237;SDS011;10777;50.828;3.264;2022-10-31T00:52:34;9.07;;;5.97;;
21237;SDS011;10777;50.828;3.264;2022-10-31T00:55:00;13.30;;;6.37;;
21237;SDS011;10777;50.828;3.264;2022-10-31T00:57:26;12.57;;;5.60;;
21237;SDS011;10777;50.828;3.264;2022-10-31T00:59:51;11.27;;;6.27;;
21237;SDS011;10777;50.828;3.264;2022-10-31T01:02:17;10.80;;;6.33;;
21237;SDS011;10777;50.828;3.264;2022-10-31T01:04:42;15.40;;;6.13;;
21237;SDS011;10777;50.828;3.264;2022-10-31T01:07:09;12.57;;;6.30;;
21237;SDS011;10777;50.828;3.264;2022-10-31T01:09:37;9.13;;;6.03;;
21237;SDS011;10777;50.828;3.264;2022-10-31T01:12:03;13.10;;;6.90;;
21237;SDS011;10777;50.828;3.264;2022-10-31T01:14:28;10.90;;;6.30;;
21237;SDS011;10777;50.828;3.264;2022-10-31T01:16:54;15.37;;;6.37;;
21237;SDS011;10777;50.828;3.264;2022-10-31T01:19:19;12.87;;;7.10;;
21237;SDS011;10777;50.828;3.264;2022-10-31T01:21:45;10.60;;;6.63;;
21237;SDS011;10777;50.828;3.264;2022-10-31T01:24:10;11.17;;;6.20;;
21237;SDS011;10777;50.828;3.264;2022-10-31T01:26:36;12.63;;;6.67;;
21237;SDS011;10777;50.828;3.264;2022-10-31T01:29:04;12.53;;;6.13;;
21237;SDS011;10777;50.828;3.264;2022-10-31T01:31:31;11.43;;;7.17;;
21237;SDS011;10777;50.828;3.264;2022-10-31T01:33:59;13.73;;;6.83;;
21237;SDS011;10777;50.828;3.264;2022-10-31T01:36:27;8.93;;;6.43;;
21237;SDS011;10777;50.828;3.264;2022-10-31T01:38:56;11.90;;;6.67;;
21237;SDS011;10777;50.828;3.264;2022-10-31T01:41:25;13.67;;;6.83;;
21237;SDS011;10777;50.828;3.264;2022-10-31T01:43:54;13.70;;;6.90;;
21237;SDS011;10777;50.828;3.264;2022-10-31T01:46:24;10.40;;;6.27;;
21237;SDS011;10777;50.828;3.264;2022-10-31T01:48:56;9.80;;;6.57;;
21237;SDS011;10777;50.828;3.264;2022-10-31T01:51:25;11.70;;;6.60;;
21237;SDS011;10777;50.828;3.264;2022-10-31T01:53:55;11.23;;;6.10;;
21237;SDS011;10777;50.828;3.264;2022-10-31T01:56:26;12.40;;;6.40;;
21237;SDS011;10777;50.828;3.264;2022-10-31T01:58:52;10.93;;;6.27;;
21237;SDS011;10777;50.828;3.264;2022-10-31T02:01:20;10.67;;;6.43;;
21237;SDS011;10777;50.828;3.264;2022-10-31T02:03:45;14.00;;;6.57;;
21237;SDS011;10777;50.828;3.264;2022-10-31T02:06:17;14.03;;;6.50;;
21237;SDS011;10777;50.828;3.264;2022-10-31T02:08:50;8.93;;;6.10;;
21237;SDS011;10777;50.828;3.264;2022-10-31T02:11:17;12.97;;;6.33;;
21237;SDS011;10777;50.828;3.264;2022-10-31T02:13:42;11.20;;;6.50;;
21237;SDS011;10777;50.828;3.264;2022-10-31T02:16:08;11.67;;;6.07;;
21237;SDS011;10777;50.828;3.264;2022-10-31T02:18:34;12.87;;;6.57;;
21237;SDS011;10777;50.828;3.264;2022-10-31T02:21:04;9.03;;;6.17;;
21237;SDS011;10777;50.828;3.264;2022-10-31T02:23:45;15.67;;;6.53;;
21237;SDS011;10777;50.828;3.264;2022-10-31T02:32:37;10.73;;;6.27;;
21237;SDS011;10777;50.828;3.264;2022-10-31T02:35:25;16.50;;;6.70;;
21237;SDS011;10777;50.828;3.264;2022-10-31T02:38:18;12.37;;;6.43;;
21237;SDS011;10777;50.828;3.264;2022-10-31T02:43:48;15.30;;;6.30;;
21237;SDS011;10777;50.828;3.264;2022-10-31T02:46:24;14.43;;;6.33;;
21237;SDS011;10777;50.828;3.264;2022-10-31T02:49:15;10.97;;;5.87;;
21237;SDS011;10777;50.828;3.264;2022-10-31T02:51:48;9.67;;;6.67;;
21237;SDS011;10777;50.828;3.264;2022-10-31T02:54:17;11.27;;;6.20;;
21237;SDS011;10777;50.828;3.264;2022-10-31T02:56:46;8.87;;;5.90;;
21237;SDS011;10777;50.828;3.264;2022-10-31T02:59:13;10.20;;;6.80;;
21237;SDS011;10777;50.828;3.264;2022-10-31T03:04:38;19.13;;;7.07;;
21237;SDS011;10777;50.828;3.264;2022-10-31T03:07:33;16.60;;;6.80;;
21237;SDS011;10777;50.828;3.264;2022-10-31T03:10:23;12.03;;;6.43;;
21237;SDS011;10777;50.828;3.264;2022-10-31T03:13:01;14.57;;;6.87;;
21237;SDS011;10777;50.828;3.264;2022-10-31T03:15:53;13.47;;;7.07;;
21237;SDS011;10777;50.828;3.264;2022-10-31T03:18:28;13.97;;;6.07;;
21237;SDS011;10777;50.828;3.264;2022-10-31T03:20:59;19.60;;;7.10;;
21237;SDS011;10777;50.828;3.264;2022-10-31T03:23:30;10.63;;;6.67;;
21237;SDS011;10777;50.828;3.264;2022-10-31T03:25:57;15.10;;;6.53;;
21237;SDS011;10777;50.828;3.264;2022-10-31T03:28:29;14.50;;;6.57;;
21237;SDS011;10777;50.828;3.264;2022-10-31T03:30:58;13.57;;;6.70;;
21237;SDS011;10777;50.828;3.264;2022-10-31T03:33:27;13.47;;;6.20;;
21237;SDS011;10777;50.828;3.264;2022-10-31T03:35:57;15.47;;;7.53;;
21237;SDS011;10777;50.828;3.264;2022-10-31T03:38:25;13.53;;;6.73;;
21237;SDS011;10777;50.828;3.264;2022-10-31T03:40:52;12.50;;;6.67;;
21237;SDS011;10777;50.828;3.264;2022-10-31T03:43:22;15.20;;;6.57;;
21237;SDS011;10777;50.828;3.264;2022-10-31T03:45:53;19.00;;;7.30;;
21237;SDS011;10777;50.828;3.264;2022-10-31T03:48:19;12.57;;;6.83;;
21237;SDS011;10777;50.828;3.264;2022-10-31T03:50:50;11.67;;;6.03;;
21237;SDS011;10777;50.828;3.264;2022-10-31T03:53:24;14.27;;;6.50;;
21237;SDS011;10777;50.828;3.264;2022-10-31T03:56:00;11.70;;;6.50;;
21237;SDS011;10777;50.828;3.264;2022-10-31T03:58:42;15.87;;;7.10;;
21237;SDS011;10777;50.828;3.264;2022-10-31T04:01:13;22.40;;;6.77;;
21237;SDS011;10777;50.828;3.264;2022-10-31T04:03:42;15.97;;;6.40;;
21237;SDS011;10777;50.828;3.264;2022-10-31T04:06:10;12.97;;;6.70;;
21237;SDS011;10777;50.828;3.264;2022-10-31T04:08:41;16.33;;;8.60;;
21237;SDS011;10777;50.828;3.264;2022-10-31T04:11:13;16.40;;;7.90;;
21237;SDS011;10777;50.828;3.264;2022-10-31T04:13:41;16.57;;;8.90;;
21237;SDS011;10777;50.828;3.264;2022-10-31T04:16:09;17.43;;;8.87;;
21237;SDS011;10777;50.828;3.264;2022-10-31T04:18:36;14.47;;;8.30;;
21237;SDS011;10777;50.828;3.264;2022-10-31T04:21:03;17.67;;;8.63;;
21237;SDS011;10777;50.828;3.264;2022-10-31T04:23:30;12.07;;;7.97;;
21237;SDS011;10777;50.828;3.264;2022-10-31T04:25:56;12.80;;;7.67;;
21237;SDS011;10777;50.828;3.264;2022-10-31T04:28:22;13.27;;;7.20;;
21237;SDS011;10777;50.828;3.264;2022-10-31T04:30:47;16.27;;;8.30;;
21237;SDS011;10777;50.828;3.264;2022-10-31T04:33:13;16.17;;;7.20;;
21237;SDS011;10777;50.828;3.264;2022-10-31T04:35:39;17.17;;;8.13;;
21237;SDS011;10777;50.828;3.264;2022-10-31T04:38:05;13.10;;;7.50;;
21237;SDS011;10777;50.828;3.264;2022-10-31T04:40:30;13.57;;;7.23;;
21237;SDS011;10777;50.828;3.264;2022-10-31T04:42:56;11.60;;;7.30;;
21237;SDS011;10777;50.828;3.264;2022-10-31T04:45:22;17.40;;;7.20;;
21237;SDS011;10777;50.828;3.264;2022-10-31T04:47:47;16.43;;;8.10;;
21237;SDS011;10777;50.828;3.264;2022-10-31T04:50:13;19.30;;;7.37;;
21237;SDS011;10777;50.828;3.264;2022-10-31T04:52:39;14.73;;;7.90;;
21237;SDS011;10777;50.828;3.264;2022-10-31T04:55:06;19.93;;;7.87;;
21237;SDS011;10777;50.828;3.264;2022-10-31T04:57:32;14.87;;;7.03;;
21237;SDS011;10777;50.828;3.264;2022-10-31T05:00:04;18.13;;;7.10;;
21237;SDS011;10777;50.828;3.264;2022-10-31T05:02:30;13.53;;;7.17;;
21237;SDS011;10777;50.828;3.264;2022-10-31T05:04:56;15.00;;;7.97;;
21237;SDS011;10777;50.828;3.264;2022-10-31T05:07:21;12.43;;;7.17;;
21237;SDS011;10777;50.828;3.264;2022-10-31T05:09:47;14.57;;;7.53;;
21237;SDS011;10777;50.828;3.264;2022-10-31T05:12:13;10.80;;;6.53;;
21237;SDS011;10777;50.828;3.264;2022-10-31T05:14:38;12.73;;;6.93;;
21237;SDS011;10777;50.828;3.264;2022-10-31T05:17:04;13.10;;;6.90;;
21237;SDS011;10777;50.828;3.264;2022-10-31T05:19:29;14.07;;;7.87;;
21237;SDS011;10777;50.828;3.264;2022-10-31T05:21:55;12.23;;;7.20;;
21237;SDS011;10777;50.828;3.264;2022-10-31T05:24:20;16.70;;;7.17;;
21237;SDS011;10777;50.828;3.264;2022-10-31T05:26:46;9.43;;;6.60;;
21237;SDS011;10777;50.828;3.264;2022-10-31T05:29:13;15.47;;;6.93;;
21237;SDS011;10777;50.828;3.264;2022-10-31T05:31:38;14.00;;;8.10;;
21237;SDS011;10777;50.828;3.264;2022-10-31T05:34:04;12.60;;;7.03;;
21237;SDS011;10777;50.828;3.264;2022-10-31T05:36:29;15.07;;;7.80;;
21237;SDS011;10777;50.828;3.264;2022-10-31T05:38:55;19.40;;;9.10;;
21237;SDS011;10777;50.828;3.264;2022-10-31T05:41:21;15.10;;;8.13;;
21237;SDS011;10777;50.828;3.264;2022-10-31T05:43:46;17.27;;;8.57;;
21237;SDS011;10777;50.828;3.264;2022-10-31T05:46:12;15.37;;;7.93;;
21237;SDS011;10777;50.828;3.264;2022-10-31T05:48:37;17.77;;;8.97;;
21237;SDS011;10777;50.828;3.264;2022-10-31T05:51:03;18.80;;;9.17;;
21237;SDS011;10777;50.828;3.264;2022-10-31T05:53:28;18.80;;;9.07;;
21237;SDS011;10777;50.828;3.264;2022-10-31T05:55:54;14.60;;;8.93;;
21237;SDS011;10777;50.828;3.264;2022-10-31T05:58:20;16.90;;;8.73;;
21237;SDS011;10777;50.828;3.264;2022-10-31T06:00:45;18.07;;;8.90;;
21237;SDS011;10777;50.828;3.264;2022-10-31T06:03:11;18.63;;;9.20;;
21237;SDS011;10777;50.828;3.264;2022-10-31T06:05:36;15.20;;;9.53;;
21237;SDS011;10777;50.828;3.264;2022-10-31T06:08:02;18.70;;;10.20;;
21237;SDS011;10777;50.828;3.264;2022-10-31T06:10:28;16.33;;;8.97;;
21237;SDS011;10777;50.828;3.264;2022-10-31T06:12:53;18.27;;;9.17;;
21237;SDS011;10777;50.828;3.264;2022-10-31T06:15:19;15.47;;;9.73;;
21237;SDS011;10777;50.828;3.264;2022-10-31T06:17:44;19.57;;;10.37;;
21237;SDS011;10777;50.828;3.264;2022-10-31T06:20:10;23.13;;;9.67;;
21237;SDS011;10777;50.828;3.264;2022-10-31T06:22:36;17.63;;;10.67;;
21237;SDS011;10777;50.828;3.264;2022-10-31T06:25:01;20.57;;;10.57;;
21237;SDS011;10777;50.828;3.264;2022-10-31T06:27:27;20.00;;;10.63;;
21237;SDS011;10777;50.828;3.264;2022-10-31T06:29:53;21.43;;;10.33;;
21237;SDS011;10777;50.828;3.264;2022-10-31T06:32:18;23.40;;;11.13;;
21237;SDS011;10777;50.828;3.264;2022-10-31T06:34:44;21.63;;;11.50;;
21237;SDS011;10777;50.828;3.264;2022-10-31T06:37:12;21.30;;;11.37;;
21237;SDS011;10777;50.828;3.264;2022-10-31T06:39:38;25.77;;;11.77;;
21237;SDS011;10777;50.828;3.264;2022-10-31T06:42:04;22.60;;;11.53;;
21237;SDS011;10777;50.828;3.264;2022-10-31T06:44:30;19.33;;;11.20;;
21237;SDS011;10777;50.828;3.264;2022-10-31T06:46:56;21.33;;;11.37;;
21237;SDS011;10777;50.828;3.264;2022-10-31T06:49:21;21.67;;;10.87;;
21237;SDS011;10777;50.828;3.264;2022-10-31T06:51:47;20.00;;;13.07;;
21237;SDS011;10777;50.828;3.264;2022-10-31T06:54:14;21.57;;;11.73;;
21237;SDS011;10777;50.828;3.264;2022-10-31T06:56:39;21.33;;;12.13;;
21237;SDS011;10777;50.828;3.264;2022-10-31T06:59:05;30.10;;;12.00;;
21237;SDS011;10777;50.828;3.264;2022-10-31T07:01:31;28.83;;;12.07;;
21237;SDS011;10777;50.828;3.264;2022-10-31T07:03:56;20.60;;;11.13;;
21237;SDS011;10777;50.828;3.264;2022-10-31T07:06:22;22.10;;;11.93;;
21237;SDS011;10777;50.828;3.264;2022-10-31T07:08:48;23.80;;;12.47;;
21237;SDS011;10777;50.828;3.264;2022-10-31T07:11:13;23.53;;;12.90;;
21237;SDS011;10777;50.828;3.264;2022-10-31T07:13:39;27.47;;;12.97;;
21237;SDS011;10777;50.828;3.264;2022-10-31T07:16:05;24.03;;;11.90;;
21237;SDS011;10777;50.828;3.264;2022-10-31T07:18:32;21.30;;;11.47;;
21237;SDS011;10777;50.828;3.264;2022-10-31T07:20:58;22.47;;;12.27;;
21237;SDS011;10777;50.828;3.264;2022-10-31T07:23:23;26.13;;;12.10;;
21237;SDS011;10777;50.828;3.264;2022-10-31T07:25:54;25.50;;;11.90;;
21237;SDS011;10777;50.828;3.264;2022-10-31T07:28:21;24.90;;;12.10;;
21237;SDS011;10777;50.828;3.264;2022-10-31T07:30:55;24.07;;;11.93;;
21237;SDS011;10777;50.828;3.264;2022-10-31T07:33:22;24.80;;;12.87;;
21237;SDS011;10777;50.828;3.264;2022-10-31T07:35:48;22.87;;;10.97;;
21237;SDS011;10777;50.828;3.264;2022-10-31T07:38:14;19.37;;;11.77;;
21237;SDS011;10777;50.828;3.264;2022-10-31T07:40:41;23.20;;;11.60;;
21237;SDS011;10777;50.828;3.264;2022-10-31T07:43:07;28.37;;;12.57;;
21237;SDS011;10777;50.828;3.264;2022-10-31T07:45:35;24.47;;;12.03;;
21237;SDS011;10777;50.828;3.264;2022-10-31T07:48:00;25.13;;;11.53;;
21237;SDS011;10777;50.828;3.264;2022-10-31T07:50:28;22.93;;;11.67;;
21237;SDS011;10777;50.828;3.264;2022-10-31T07:53:03;26.07;;;11.27;;
21237;SDS011;10777;50.828;3.264;2022-10-31T07:55:35;24.93;;;12.03;;
21237;SDS011;10777;50.828;3.264;2022-10-31T07:58:02;20.87;;;11.40;;
21237;SDS011;10777;50.828;3.264;2022-10-31T08:00:30;28.43;;;11.87;;
21237;SDS011;10777;50.828;3.264;2022-10-31T08:02:57;23.07;;;10.47;;
21237;SDS011;10777;50.828;3.264;2022-10-31T08:05:28;19.10;;;12.13;;
21237;SDS011;10777;50.828;3.264;2022-10-31T08:07:54;24.87;;;11.63;;
21237;SDS011;10777;50.828;3.264;2022-10-31T08:10:20;16.40;;;10.27;;
21237;SDS011;10777;50.828;3.264;2022-10-31T08:12:47;18.13;;;11.30;;
21237;SDS011;10777;50.828;3.264;2022-10-31T08:15:20;22.90;;;10.13;;
21237;SDS011;10777;50.828;3.264;2022-10-31T08:17:46;20.53;;;10.00;;
21237;SDS011;10777;50.828;3.264;2022-10-31T08:20:11;19.63;;;9.93;;
21237;SDS011;10777;50.828;3.264;2022-10-31T08:22:37;16.00;;;10.10;;
21237;SDS011;10777;50.828;3.264;2022-10-31T08:25:03;20.37;;;10.83;;
21237;SDS011;10777;50.828;3.264;2022-10-31T08:27:28;18.60;;;11.20;;
21237;SDS011;10777;50.828;3.264;2022-10-31T08:29:54;18.87;;;11.40;;
21237;SDS011;10777;50.828;3.264;2022-10-31T08:32:20;24.60;;;10.53;;
21237;SDS011;10777;50.828;3.264;2022-10-31T08:34:45;18.70;;;11.03;;
21237;SDS011;10777;50.828;3.264;2022-10-31T08:37:11;33.53;;;18.47;;
21237;SDS011;10777;50.828;3.264;2022-10-31T08:39:37;16.27;;;10.30;;
21237;SDS011;10777;50.828;3.264;2022-10-31T08:42:02;18.87;;;11.00;;
21237;SDS011;10777;50.828;3.264;2022-10-31T08:44:28;18.07;;;11.60;;
21237;SDS011;10777;50.828;3.264;2022-10-31T08:46:53;22.43;;;12.37;;
21237;SDS011;10777;50.828;3.264;2022-10-31T08:49:19;28.03;;;10.93;;
21237;SDS011;10777;50.828;3.264;2022-10-31T08:51:47;20.63;;;11.13;;
21237;SDS011;10777;50.828;3.264;2022-10-31T08:54:13;21.50;;;11.77;;
21237;SDS011;10777;50.828;3.264;2022-10-31T08:56:39;19.40;;;11.03;;
21237;SDS011;10777;50.828;3.264;2022-10-31T08:59:04;20.80;;;10.80;;
21237;SDS011;10777;50.828;3.264;2022-10-31T09:01:30;19.10;;;10.47;;
21237;SDS011;10777;50.828;3.264;2022-10-31T09:03:55;23.60;;;10.67;;
21237;SDS011;10777;50.828;3.264;2022-10-31T09:06:21;22.97;;;10.30;;
21237;SDS011;10777;50.828;3.264;2022-10-31T09:08:46;18.83;;;10.37;;
21237;SDS011;10777;50.828;3.264;2022-10-31T09:11:12;17.53;;;10.87;;
21237;SDS011;10777;50.828;3.264;2022-10-31T09:13:38;18.13;;;10.33;;
21237;SDS011;10777;50.828;3.264;2022-10-31T09:16:03;23.13;;;10.67;;
21237;SDS011;10777;50.828;3.264;2022-10-31T09:18:29;19.73;;;12.00;;
21237;SDS011;10777;50.828;3.264;2022-10-31T09:20:57;14.80;;;9.70;;
21237;SDS011;10777;50.828;3.264;2022-10-31T09:23:23;29.47;;;11.27;;
21237;SDS011;10777;50.828;3.264;2022-10-31T09:25:50;19.87;;;10.33;;
21237;SDS011;10777;50.828;3.264;2022-10-31T09:28:18;18.00;;;10.20;;
21237;SDS011;10777;50.828;3.264;2022-10-31T09:30:46;26.10;;;11.13;;
21237;SDS011;10777;50.828;3.264;2022-10-31T09:33:13;19.20;;;10.50;;
21237;SDS011;10777;50.828;3.264;2022-10-31T09:35:39;17.67;;;10.67;;
21237;SDS011;10777;50.828;3.264;2022-10-31T09:38:08;15.70;;;10.33;;
21237;SDS011;10777;50.828;3.264;2022-10-31T09:40:39;20.23;;;11.33;;
21237;SDS011;10777;50.828;3.264;2022-10-31T09:43:25;26.93;;;10.20;;
21237;SDS011;10777;50.828;3.264;2022-10-31T09:46:14;23.93;;;10.90;;
21237;SDS011;10777;50.828;3.264;2022-10-31T09:49:08;22.60;;;9.77;;
21237;SDS011;10777;50.828;3.264;2022-10-31T09:52:01;22.83;;;10.50;;
21237;SDS011;10777;50.828;3.264;2022-10-31T09:54:36;22.30;;;9.90;;
21237;SDS011;10777;50.828;3.264;2022-10-31T09:57:10;23.90;;;10.67;;
21237;SDS011;10777;50.828;3.264;2022-10-31T09:59:39;20.87;;;10.40;;
21237;SDS011;10777;50.828;3.264;2022-10-31T10:02:24;17.87;;;9.90;;
21237;SDS011;10777;50.828;3.264;2022-10-31T10:05:11;23.23;;;10.40;;
21237;SDS011;10777;50.828;3.264;2022-10-31T10:07:59;34.07;;;16.27;;
21237;SDS011;10777;50.828;3.264;2022-10-31T10:13:35;17.80;;;8.93;;
21237;SDS011;10777;50.828;3.264;2022-10-31T10:16:16;12.90;;;8.97;;
21237;SDS011;10777;50.828;3.264;2022-10-31T10:22:20;17.30;;;8.93;;
21237;SDS011;10777;50.828;3.264;2022-10-31T10:24:57;16.77;;;7.77;;
21237;SDS011;10777;50.828;3.264;2022-10-31T10:27:58;16.57;;;8.30;;
21237;SDS011;10777;50.828;3.264;2022-10-31T10:30:32;18.43;;;8.80;;
21237;SDS011;10777;50.828;3.264;2022-10-31T10:35:58;21.67;;;8.13;;
21237;SDS011;10777;50.828;3.264;2022-10-31T10:38:27;15.77;;;8.10;;
21237;SDS011;10777;50.828;3.264;2022-10-31T10:41:14;15.83;;;7.57;;
21237;SDS011;10777;50.828;3.264;2022-10-31T10:43:43;13.40;;;6.33;;
21237;SDS011;10777;50.828;3.264;2022-10-31T10:46:29;13.80;;;7.33;;
21237;SDS011;10777;50.828;3.264;2022-10-31T10:49:31;16.97;;;6.80;;
21237;SDS011;10777;50.828;3.264;2022-10-31T10:52:08;17.43;;;6.17;;
21237;SDS011;10777;50.828;3.264;2022-10-31T10:58:03;15.23;;;6.13;;
21237;SDS011;10777;50.828;3.264;2022-10-31T11:00:37;15.50;;;6.57;;
21237;SDS011;10777;50.828;3.264;2022-10-31T11:03:06;18.27;;;6.50;;
21237;SDS011;10777;50.828;3.264;2022-10-31T11:05:36;10.33;;;5.97;;
21237;SDS011;10777;50.828;3.264;2022-10-31T11:08:07;14.47;;;6.13;;
21237;SDS011;10777;50.828;3.264;2022-10-31T11:10:33;11.80;;;6.63;;
21237;SDS011;10777;50.828;3.264;2022-10-31T11:13:02;12.03;;;6.60;;
21237;SDS011;10777;50.828;3.264;2022-10-31T11:15:50;14.43;;;5.50;;
21237;SDS011;10777;50.828;3.264;2022-10-31T11:18:21;12.90;;;6.03;;
21237;SDS011;10777;50.828;3.264;2022-10-31T11:20:51;16.87;;;7.43;;
21237;SDS011;10777;50.828;3.264;2022-10-31T11:23:19;13.57;;;5.87;;
21237;SDS011;10777;50.828;3.264;2022-10-31T11:25:48;11.83;;;6.07;;
21237;SDS011;10777;50.828;3.264;2022-10-31T11:28:23;12.60;;;6.93;;
21237;SDS011;10777;50.828;3.264;2022-10-31T11:30:51;10.47;;;5.67;;
21237;SDS011;10777;50.828;3.264;2022-10-31T11:33:29;12.03;;;6.13;;
21237;SDS011;10777;50.828;3.264;2022-10-31T11:35:59;15.00;;;6.07;;
21237;SDS011;10777;50.828;3.264;2022-10-31T11:38:32;11.20;;;6.17;;
21237;SDS011;10777;50.828;3.264;2022-10-31T11:41:08;10.17;;;5.40;;
21237;SDS011;10777;50.828;3.264;2022-10-31T11:43:37;13.93;;;5.40;;
21237;SDS011;10777;50.828;3.264;2022-10-31T11:46:10;11.97;;;5.70;;
21237;SDS011;10777;50.828;3.264;2022-10-31T11:48:40;10.47;;;5.60;;
21237;SDS011;10777;50.828;3.264;2022-10-31T11:51:21;16.17;;;6.63;;
21237;SDS011;10777;50.828;3.264;2022-10-31T11:53:51;9.83;;;4.33;;
21237;SDS011;10777;50.828;3.264;2022-10-31T11:56:18;10.63;;;5.07;;
21237;SDS011;10777;50.828;3.264;2022-10-31T11:58:54;11.47;;;5.80;;
21237;SDS011;10777;50.828;3.264;2022-10-31T12:01:29;13.03;;;6.23;;
21237;SDS011;10777;50.828;3.264;2022-10-31T12:04:06;25.97;;;12.93;;
21237;SDS011;10777;50.828;3.264;2022-10-31T12:06:35;18.83;;;5.73;;
21237;SDS011;10777;50.828;3.264;2022-10-31T12:09:36;10.83;;;6.33;;
21237;SDS011;10777;50.828;3.264;2022-10-31T12:12:06;9.10;;;5.70;;
21237;SDS011;10777;50.828;3.264;2022-10-31T12:14:46;12.97;;;6.73;;
21237;SDS011;10777;50.828;3.264;2022-10-31T12:17:29;19.00;;;6.27;;
21237;SDS011;10777;50.828;3.264;2022-10-31T12:23:29;20.00;;;7.33;;
21237;SDS011;10777;50.828;3.264;2022-10-31T12:26:19;22.07;;;6.47;;
21237;SDS011;10777;50.828;3.264;2022-10-31T12:35:18;17.27;;;7.63;;
21237;SDS011;10777;50.828;3.264;2022-10-31T12:41:07;18.07;;;7.23;;
21237;SDS011;10777;50.828;3.264;2022-10-31T12:43:57;18.80;;;7.57;;
21237;SDS011;10777;50.828;3.264;2022-10-31T12:46:36;16.20;;;7.73;;
21237;SDS011;10777;50.828;3.264;2022-10-31T12:50:02;30.27;;;11.17;;
21237;SDS011;10777;50.828;3.264;2022-10-31T12:52:54;25.30;;;9.50;;
21237;SDS011;10777;50.828;3.264;2022-10-31T12:55:41;26.73;;;8.63;;
21237;SDS011;10777;50.828;3.264;2022-10-31T12:58:23;19.93;;;7.43;;
21237;SDS011;10777;50.828;3.264;2022-10-31T13:00:58;22.33;;;8.20;;
21237;SDS011;10777;50.828;3.264;2022-10-31T13:03:33;19.57;;;7.73;;
21237;SDS011;10777;50.828;3.264;2022-10-31T13:06:09;20.67;;;8.87;;
21237;SDS011;10777;50.828;3.264;2022-10-31T13:08:44;22.40;;;8.17;;
21237;SDS011;10777;50.828;3.264;2022-10-31T13:11:15;20.63;;;8.27;;
21237;SDS011;10777;50.828;3.264;2022-10-31T13:13:52;20.57;;;8.07;;
21237;SDS011;10777;50.828;3.264;2022-10-31T13:16:41;21.27;;;7.73;;
21237;SDS011;10777;50.828;3.264;2022-10-31T13:19:13;21.47;;;7.87;;
21237;SDS011;10777;50.828;3.264;2022-10-31T13:27:51;26.00;;;8.40;;
21237;SDS011;10777;50.828;3.264;2022-10-31T13:30:37;24.10;;;8.27;;
21237;SDS011;10777;50.828;3.264;2022-10-31T13:33:07;21.73;;;8.77;;
21237;SDS011;10777;50.828;3.264;2022-10-31T13:35:43;29.30;;;14.13;;
21237;SDS011;10777;50.828;3.264;2022-10-31T13:38:22;17.37;;;8.20;;
21237;SDS011;10777;50.828;3.264;2022-10-31T13:41:17;22.37;;;8.40;;
21237;SDS011;10777;50.828;3.264;2022-10-31T13:44:02;27.40;;;9.20;;
21237;SDS011;10777;50.828;3.264;2022-10-31T13:46:43;15.97;;;8.03;;
21237;SDS011;10777;50.828;3.264;2022-10-31T13:49:26;29.10;;;9.00;;
21237;SDS011;10777;50.828;3.264;2022-10-31T13:52:12;24.40;;;9.57;;
21237;SDS011;10777;50.828;3.264;2022-10-31T13:54:43;21.43;;;8.50;;
21237;SDS011;10777;50.828;3.264;2022-10-31T13:57:19;21.17;;;9.27;;
21237;SDS011;10777;50.828;3.264;2022-10-31T13:59:55;23.20;;;9.27;;
21237;SDS011;10777;50.828;3.264;2022-10-31T14:02:31;23.93;;;8.03;;
21237;SDS011;10777;50.828;3.264;2022-10-31T14:05:01;18.10;;;8.70;;
21237;SDS011;10777;50.828;3.264;2022-10-31T14:07:30;24.20;;;9.13;;
21237;SDS011;10777;50.828;3.264;2022-10-31T14:10:05;20.50;;;8.80;;
21237;SDS011;10777;50.828;3.264;2022-10-31T14:12:45;18.37;;;8.10;;
21237;SDS011;10777;50.828;3.264;2022-10-31T14:15:20;14.87;;;8.10;;
21237;SDS011;10777;50.828;3.264;2022-10-31T14:17:50;21.30;;;9.10;;
21237;SDS011;10777;50.828;3.264;2022-10-31T14:20:24;20.43;;;8.67;;
21237;SDS011;10777;50.828;3.264;2022-10-31T14:23:12;22.63;;;8.60;;
21237;SDS011;10777;50.828;3.264;2022-10-31T14:28:57;23.67;;;8.67;;
21237;SDS011;10777;50.828;3.264;2022-10-31T14:31:30;22.53;;;9.90;;
21237;SDS011;10777;50.828;3.264;2022-10-31T14:34:02;20.20;;;8.83;;
21237;SDS011;10777;50.828;3.264;2022-10-31T14:37:02;21.07;;;8.87;;
21237;SDS011;10777;50.828;3.264;2022-10-31T14:39:55;24.67;;;10.90;;
21237;SDS011;10777;50.828;3.264;2022-10-31T14:42:48;27.93;;;13.70;;
21237;SDS011;10777;50.828;3.264;2022-10-31T14:45:45;21.03;;;10.23;;
21237;SDS011;10777;50.828;3.264;2022-10-31T14:48:23;14.87;;;9.63;;
21237;SDS011;10777;50.828;3.264;2022-10-31T14:51:12;25.27;;;9.73;;
21237;SDS011;10777;50.828;3.264;2022-10-31T14:53:45;28.87;;;10.60;;
21237;SDS011;10777;50.828;3.264;2022-10-31T14:56:17;19.37;;;9.80;;
21237;SDS011;10777;50.828;3.264;2022-10-31T14:58:49;24.70;;;10.47;;
21237;SDS011;10777;50.828;3.264;2022-10-31T15:01:21;22.77;;;10.63;;
21237;SDS011;10777;50.828;3.264;2022-10-31T15:03:51;26.57;;;9.43;;
21237;SDS011;10777;50.828;3.264;2022-10-31T15:06:19;24.60;;;9.70;;
21237;SDS011;10777;50.828;3.264;2022-10-31T15:08:48;22.03;;;10.10;;
21237;SDS011;10777;50.828;3.264;2022-10-31T15:11:24;22.07;;;12.07;;
21237;SDS011;10777;50.828;3.264;2022-10-31T15:13:52;21.30;;;9.97;;
21237;SDS011;10777;50.828;3.264;2022-10-31T15:16:21;54.83;;;28.23;;
21237;SDS011;10777;50.828;3.264;2022-10-31T15:18:57;16.40;;;10.23;;
21237;SDS011;10777;50.828;3.264;2022-10-31T15:21:27;24.87;;;12.10;;
21237;SDS011;10777;50.828;3.264;2022-10-31T15:23:54;19.40;;;10.03;;
21237;SDS011;10777;50.828;3.264;2022-10-31T15:26:26;25.60;;;11.90;;
21237;SDS011;10777;50.828;3.264;2022-10-31T15:29:03;30.20;;;12.73;;
21237;SDS011;10777;50.828;3.264;2022-10-31T15:31:31;22.93;;;11.93;;
21237;SDS011;10777;50.828;3.264;2022-10-31T15:33:59;22.13;;;12.10;;
21237;SDS011;10777;50.828;3.264;2022-10-31T15:36:30;21.87;;;10.73;;
21237;SDS011;10777;50.828;3.264;2022-10-31T15:38:57;19.30;;;11.47;;
21237;SDS011;10777;50.828;3.264;2022-10-31T15:41:27;25.63;;;12.60;;